createdAt,value
2023-06-03T00:00:28.432Z,100.00
2023-06-03T00:02:55.426Z,100.00
2023-06-03T00:05:22.741Z,100.00
2023-06-03T00:07:50.127Z,100.00
2023-06-03T00:10:17.304Z,100.00
2023-06-03T00:12:49.846Z,100.00
2023-06-03T00:15:17.104Z,100.00
2023-06-03T00:17:43.969Z,100.00
2023-06-03T00:20:11.238Z,100.00
2023-06-03T00:22:38.533Z,100.00
2023-06-03T00:25:08.380Z,100.00
2023-06-03T00:27:36.031Z,100.00
2023-06-03T00:30:04.035Z,100.00
2023-06-03T00:32:35.055Z,100.00
2023-06-03T00:35:04.343Z,100.00
2023-06-03T00:37:36.228Z,100.00
2023-06-03T00:40:10.756Z,100.00
2023-06-03T00:42:37.379Z,100.00
2023-06-03T00:45:04.299Z,100.00
2023-06-03T00:47:31.094Z,100.00
2023-06-03T00:49:58.994Z,100.00
2023-06-03T00:52:28.894Z,100.00
2023-06-03T00:54:55.668Z,100.00
2023-06-03T00:57:23.800Z,100.00
2023-06-03T00:59:50.628Z,100.00
2023-06-03T01:02:45.456Z,100.00
2023-06-03T01:05:13.494Z,100.00
2023-06-03T01:08:20.064Z,100.00
2023-06-03T01:11:10.094Z,100.00
2023-06-03T01:13:46.702Z,100.00
2023-06-03T01:16:14.238Z,100.00
2023-06-03T01:18:41.877Z,100.00
2023-06-03T01:21:08.677Z,100.00
2023-06-03T01:23:35.601Z,100.00
2023-06-03T01:26:05.682Z,100.00
2023-06-03T01:28:36.522Z,100.00
2023-06-03T01:31:04.678Z,100.00
2023-06-03T01:33:32.245Z,100.00
2023-06-03T01:36:01.897Z,100.00
2023-06-03T01:38:28.881Z,100.00
2023-06-03T01:40:59.260Z,100.00
2023-06-03T01:43:26.031Z,100.00
2023-06-03T01:45:52.774Z,100.00
2023-06-03T01:48:19.453Z,100.00
2023-06-03T01:50:46.184Z,100.00
2023-06-03T01:53:16.183Z,100.00
2023-06-03T01:55:45.097Z,100.00
2023-06-03T01:58:12.703Z,100.00
2023-06-03T02:00:45.444Z,100.00
2023-06-03T02:03:12.151Z,100.00
2023-06-03T02:05:38.860Z,100.00
2023-06-03T02:08:08.817Z,100.00
2023-06-03T02:10:36.184Z,100.00
2023-06-03T02:13:05.386Z,100.00
2023-06-03T02:15:31.976Z,100.00
2023-06-03T02:18:00.667Z,100.00
2023-06-03T02:20:27.510Z,100.00
2023-06-03T02:22:55.015Z,100.00
2023-06-03T02:25:21.647Z,100.00
2023-06-03T02:27:48.610Z,100.00
2023-06-03T02:30:15.592Z,100.00
2023-06-03T02:32:42.875Z,100.00
2023-06-03T02:35:09.859Z,100.00
2023-06-03T02:37:40.065Z,100.00
2023-06-03T02:40:07.605Z,100.00
2023-06-03T02:42:34.231Z,100.00
2023-06-03T02:45:01.237Z,100.00
2023-06-03T02:47:27.877Z,100.00
2023-06-03T02:50:06.469Z,100.00
2023-06-03T02:52:34.814Z,100.00
2023-06-03T02:55:02.482Z,100.00
2023-06-03T02:57:29.239Z,100.00
2023-06-03T02:59:57.023Z,100.00
2023-06-03T03:02:25.787Z,100.00
2023-06-03T03:04:52.405Z,100.00
2023-06-03T03:07:21.669Z,100.00
2023-06-03T03:09:48.553Z,100.00
2023-06-03T03:12:15.630Z,100.00
2023-06-03T03:14:44.942Z,100.00
2023-06-03T03:17:17.656Z,100.00
2023-06-03T03:19:44.466Z,100.00
2023-06-03T03:22:11.753Z,100.00
2023-06-03T03:24:39.241Z,100.00
2023-06-03T03:27:06.176Z,100.00
2023-06-03T03:29:35.508Z,100.00
2023-06-03T03:32:08.918Z,100.00
2023-06-03T03:34:39.275Z,100.00
2023-06-03T03:37:08.525Z,100.00
2023-06-03T03:39:39.130Z,100.00
2023-06-03T03:42:06.418Z,100.00
2023-06-03T03:44:36.820Z,100.00
2023-06-03T03:47:04.767Z,100.00
2023-06-03T03:49:38.230Z,100.00
2023-06-03T03:52:11.901Z,100.00
2023-06-03T03:54:41.549Z,100.00
2023-06-03T03:57:13.800Z,100.00
2023-06-03T03:59:45.752Z,100.00
2023-06-03T04:02:12.976Z,100.00
2023-06-03T04:04:46.031Z,100.00
2023-06-03T04:07:18.122Z,100.00
2023-06-03T04:09:45.610Z,100.00
2023-06-03T04:12:40.959Z,100.00
2023-06-03T04:15:10.264Z,100.00
2023-06-03T04:17:39.121Z,100.00
2023-06-03T04:20:10.441Z,100.00
2023-06-03T04:22:37.312Z,100.00
2023-06-03T04:25:12.505Z,100.00
2023-06-03T04:27:48.338Z,100.00
2023-06-03T04:30:16.892Z,100.00
2023-06-03T04:32:43.671Z,100.00
2023-06-03T04:35:10.636Z,100.00
2023-06-03T04:37:40.754Z,100.00
2023-06-03T04:40:11.041Z,100.00
2023-06-03T04:42:42.198Z,100.00
2023-06-03T04:45:10.262Z,100.00
2023-06-03T04:47:43.098Z,100.00
2023-06-03T04:50:12.304Z,100.00
2023-06-03T04:52:40.098Z,100.00
2023-06-03T04:55:09.837Z,100.00
2023-06-03T04:57:44.626Z,100.00
2023-06-03T05:00:11.609Z,100.00
2023-06-03T05:02:40.161Z,100.00
2023-06-03T05:05:07.264Z,100.00
2023-06-03T05:07:37.125Z,100.00
2023-06-03T05:10:04.688Z,100.00
2023-06-03T05:12:33.829Z,100.00
2023-06-03T05:15:00.543Z,100.00
2023-06-03T05:17:32.605Z,100.00
2023-06-03T05:19:59.300Z,100.00
2023-06-03T05:22:26.016Z,100.00
2023-06-03T05:24:52.683Z,100.00
2023-06-03T05:27:19.318Z,100.00
2023-06-03T05:29:49.264Z,100.00
2023-06-03T05:32:16.067Z,100.00
2023-06-03T05:34:42.665Z,100.00
2023-06-03T05:37:10.148Z,100.00
2023-06-03T05:39:37.450Z,100.00
2023-06-03T05:42:07.597Z,100.00
2023-06-03T05:44:34.273Z,100.00
2023-06-03T05:47:01.031Z,100.00
2023-06-03T05:49:27.991Z,100.00
2023-06-03T05:51:54.710Z,100.00
2023-06-03T05:54:26.910Z,100.00
2023-06-03T05:56:53.682Z,100.00
2023-06-03T05:59:20.709Z,100.00
2023-06-03T06:01:47.873Z,100.00
2023-06-03T06:04:14.990Z,100.00
2023-06-03T06:06:45.834Z,100.00
2023-06-03T06:09:12.542Z,100.00
2023-06-03T06:11:39.906Z,100.00
2023-06-03T06:14:07.159Z,100.00
2023-06-03T06:16:35.496Z,100.00
2023-06-03T06:19:04.972Z,100.00
2023-06-03T06:21:33.235Z,100.00
2023-06-03T06:24:01.135Z,100.00
2023-06-03T06:26:30.661Z,100.00
2023-06-03T06:28:58.537Z,100.00
2023-06-03T06:31:25.646Z,100.00
2023-06-03T06:33:54.494Z,100.00
2023-06-03T06:36:30.865Z,100.00
2023-06-03T06:38:59.544Z,100.00
2023-06-03T06:41:28.486Z,100.00
2023-06-03T06:43:57.932Z,100.00
2023-06-03T06:46:25.782Z,100.00
2023-06-03T06:48:53.202Z,100.00
2023-06-03T06:51:21.582Z,100.00
2023-06-03T06:53:53.891Z,100.00
2023-06-03T06:56:20.746Z,100.00
2023-06-03T06:58:54.571Z,100.00
2023-06-03T07:01:26.616Z,100.00
2023-06-03T07:03:55.770Z,100.00
2023-06-03T07:06:22.737Z,100.00
2023-06-03T07:08:54.486Z,100.00
2023-06-03T07:11:24.046Z,100.00
2023-06-03T07:13:57.307Z,100.00
2023-06-03T07:16:26.786Z,100.00
2023-06-03T07:18:54.957Z,100.00
2023-06-03T07:21:28.189Z,100.00
2023-06-03T07:23:58.876Z,100.00
2023-06-03T07:26:28.685Z,100.00
2023-06-03T07:28:59.075Z,100.00
2023-06-03T07:31:28.709Z,100.00
2023-06-03T07:33:56.623Z,100.00
2023-06-03T07:36:31.270Z,100.00
2023-06-03T07:39:06.867Z,100.00
2023-06-03T07:41:52.072Z,100.00
2023-06-03T07:44:47.732Z,100.00
2023-06-03T07:47:15.843Z,100.00
2023-06-03T07:49:46.968Z,100.00
2023-06-03T07:52:17.836Z,100.00
2023-06-03T07:54:44.493Z,100.00
2023-06-03T07:57:13.224Z,100.00
2023-06-03T07:59:39.885Z,100.00
2023-06-03T08:02:10.653Z,100.00
2023-06-03T08:04:45.562Z,100.00
2023-06-03T08:07:13.313Z,100.00
2023-06-03T08:09:46.438Z,100.00
2023-06-03T08:12:13.214Z,100.00
2023-06-03T08:14:40.960Z,100.00
2023-06-03T08:17:11.328Z,100.00
2023-06-03T08:19:46.353Z,100.00
2023-06-03T08:22:45.348Z,100.00
2023-06-03T08:25:12.814Z,100.00
2023-06-03T08:27:39.506Z,100.00
2023-06-03T08:30:06.848Z,100.00
2023-06-03T08:32:36.276Z,100.00
2023-06-03T08:35:03.757Z,100.00
2023-06-03T08:37:33.949Z,100.00
2023-06-03T08:40:12.227Z,100.00
2023-06-03T08:42:45.840Z,100.00
2023-06-03T08:45:16.925Z,100.00
2023-06-03T08:48:01.997Z,100.00
2023-06-03T08:50:29.581Z,100.00
2023-06-03T08:52:57.071Z,100.00
2023-06-03T08:55:23.829Z,100.00
2023-06-03T08:58:20.425Z,100.00
2023-06-03T09:00:48.387Z,100.00
2023-06-03T09:03:17.803Z,100.00
2023-06-03T09:05:47.759Z,100.00
2023-06-03T09:08:15.869Z,100.00
2023-06-03T09:10:42.972Z,98.38
2023-06-03T09:13:09.636Z,100.00
2023-06-03T09:15:37.466Z,98.56
2023-06-03T09:18:04.423Z,98.43
2023-06-03T09:20:31.155Z,97.84
2023-06-03T09:22:57.917Z,100.00
2023-06-03T09:25:24.753Z,100.00
2023-06-03T09:27:52.076Z,95.59
2023-06-03T09:30:23.631Z,90.65
2023-06-03T09:32:50.394Z,88.44
2023-06-03T09:35:17.223Z,90.94
2023-06-03T09:37:58.979Z,96.67
2023-06-03T09:40:30.784Z,98.81
2023-06-03T09:43:01.018Z,95.47
2023-06-03T09:45:27.615Z,93.55
2023-06-03T09:47:54.895Z,85.71
2023-06-03T09:50:22.826Z,94.30
2023-06-03T09:52:49.496Z,98.70
2023-06-03T09:55:18.633Z,96.36
2023-06-03T09:58:07.726Z,100.00
2023-06-03T10:00:48.278Z,96.80
2023-06-03T10:03:15.217Z,97.02
2023-06-03T10:05:42.464Z,96.36
2023-06-03T10:08:09.255Z,95.92
2023-06-03T10:10:40.429Z,95.64
2023-06-03T10:13:22.392Z,96.42
2023-06-03T10:15:54.720Z,93.98
2023-06-03T10:18:38.608Z,91.11
2023-06-03T10:21:12.684Z,92.74
2023-06-03T10:23:41.604Z,100.00
2023-06-03T10:26:09.307Z,90.82
2023-06-03T10:28:39.501Z,99.89
2023-06-03T10:31:11.740Z,100.00
2023-06-03T10:33:39.953Z,92.84
2023-06-03T10:36:07.863Z,86.96
2023-06-03T10:38:34.580Z,97.47
2023-06-03T10:41:02.430Z,89.26
2023-06-03T10:43:32.433Z,87.81
2023-06-03T10:45:59.662Z,90.27
2023-06-03T10:48:27.031Z,86.12
2023-06-03T10:51:16.247Z,87.00
2023-06-03T10:54:05.605Z,89.85
2023-06-03T10:56:46.037Z,87.71
2023-06-03T10:59:17.502Z,85.43
2023-06-03T11:02:04.777Z,90.85
2023-06-03T11:04:40.320Z,87.54
2023-06-03T11:07:45.370Z,85.68
2023-06-03T11:10:43.028Z,87.34
2023-06-03T11:13:12.246Z,83.13
2023-06-03T11:16:11.385Z,82.86
2023-06-03T11:18:38.129Z,82.53
2023-06-03T11:21:05.069Z,82.80
2023-06-03T11:23:50.094Z,79.96
2023-06-03T11:26:36.948Z,80.53
2023-06-03T11:29:07.492Z,80.68
2023-06-03T11:31:37.269Z,76.97
2023-06-03T11:34:19.183Z,68.35
2023-06-03T11:36:47.812Z,68.91
2023-06-03T11:39:16.953Z,79.43
2023-06-03T11:42:12.109Z,83.76
2023-06-03T11:44:40.388Z,79.98
2023-06-03T11:47:07.365Z,69.72
2023-06-03T11:49:36.140Z,72.54
2023-06-03T11:52:03.113Z,76.27
2023-06-03T11:54:31.104Z,75.59
2023-06-03T11:57:03.322Z,76.15
2023-06-03T11:59:45.332Z,79.00
2023-06-03T12:02:12.193Z,83.03
2023-06-03T12:04:39.085Z,66.80
2023-06-03T12:07:13.529Z,67.94
2023-06-03T12:09:40.248Z,72.30
2023-06-03T12:12:09.042Z,68.91
2023-06-03T12:14:39.352Z,72.32
2023-06-03T12:17:14.507Z,74.25
2023-06-03T12:19:54.290Z,69.54
2023-06-03T12:22:36.773Z,70.23
2023-06-03T12:25:06.904Z,66.46
2023-06-03T12:27:35.432Z,71.30
2023-06-03T12:30:07.682Z,66.59
2023-06-03T12:32:58.303Z,67.56
2023-06-03T12:35:30.719Z,67.88
2023-06-03T12:38:07.566Z,69.09
2023-06-03T12:40:35.912Z,70.77
2023-06-03T12:43:05.771Z,69.85
2023-06-03T12:45:32.706Z,68.29
2023-06-03T12:48:00.494Z,69.40
2023-06-03T12:50:34.450Z,70.88
2023-06-03T12:55:56.677Z,69.60
2023-06-03T12:58:26.012Z,68.04
2023-06-03T13:01:00.358Z,72.51
2023-06-03T13:03:27.174Z,68.12
2023-06-03T13:05:56.205Z,72.72
2023-06-03T13:08:30.266Z,74.21
2023-06-03T13:10:56.902Z,74.70
2023-06-03T13:13:25.473Z,76.60
2023-06-03T13:15:59.070Z,76.96
2023-06-03T13:18:25.955Z,81.50
2023-06-03T13:20:54.525Z,79.75
2023-06-03T13:23:30.243Z,71.63
2023-06-03T13:25:57.631Z,72.82
2023-06-03T13:28:27.619Z,80.78
2023-06-03T13:30:56.540Z,71.71
2023-06-03T13:33:23.285Z,70.16
2023-06-03T13:35:54.450Z,62.48
2023-06-03T13:38:32.695Z,65.47
2023-06-03T13:40:59.334Z,69.35
2023-06-03T13:43:25.930Z,66.48
2023-06-03T13:45:58.620Z,72.43
2023-06-03T13:48:28.154Z,61.70
2023-06-03T13:50:58.139Z,64.49
2023-06-03T13:53:32.813Z,66.74
2023-06-03T13:55:59.543Z,58.53
2023-06-03T13:58:26.238Z,68.93
2023-06-03T14:01:03.015Z,61.75
2023-06-03T14:03:29.783Z,65.76
2023-06-03T14:05:56.442Z,65.62
2023-06-03T14:08:26.516Z,67.89
2023-06-03T14:10:55.645Z,69.33
2023-06-03T14:13:27.665Z,65.99
2023-06-03T14:16:03.361Z,64.40
2023-06-03T14:18:30.209Z,70.30
2023-06-03T14:20:56.867Z,67.77
2023-06-03T14:23:26.310Z,62.17
2023-06-03T14:26:04.515Z,66.50
2023-06-03T14:28:31.438Z,57.00
2023-06-03T14:31:04.038Z,59.85
2023-06-03T14:33:30.842Z,56.24
2023-06-03T14:35:57.544Z,55.83
2023-06-03T14:38:26.582Z,53.00
2023-06-03T14:41:01.173Z,55.22
2023-06-03T14:43:27.829Z,50.38
2023-06-03T14:45:56.817Z,53.83
2023-06-03T14:48:27.592Z,53.22
2023-06-03T14:50:55.261Z,54.04
2023-06-03T14:53:29.507Z,54.11
2023-06-03T14:55:59.179Z,51.39
2023-06-03T14:58:25.999Z,62.85
2023-06-03T15:01:00.345Z,50.37
2023-06-03T15:03:26.980Z,54.95
2023-06-03T15:05:56.194Z,52.75
2023-06-03T15:08:24.923Z,52.86
2023-06-03T15:10:59.938Z,53.82
2023-06-03T15:13:34.156Z,50.80
2023-06-03T15:16:00.856Z,51.70
2023-06-03T15:18:27.602Z,51.92
2023-06-03T15:20:59.531Z,50.21
2023-06-03T15:23:26.258Z,52.02
2023-06-03T15:25:53.024Z,54.02
2023-06-03T15:28:19.617Z,51.26
2023-06-03T15:30:46.212Z,56.01
2023-06-03T15:33:12.865Z,51.61
2023-06-03T15:35:39.526Z,50.43
2023-06-03T15:38:06.184Z,50.04
2023-06-03T15:40:32.866Z,53.23
2023-06-03T15:42:59.479Z,49.08
2023-06-03T15:45:26.307Z,51.41
2023-06-03T15:48:02.117Z,49.67
2023-06-03T15:50:28.788Z,52.64
2023-06-03T15:52:56.061Z,54.66
2023-06-03T15:55:22.738Z,52.18
2023-06-03T15:57:49.357Z,58.42
2023-06-03T16:00:16.311Z,52.62
2023-06-03T16:02:43.066Z,52.15
2023-06-03T16:05:09.804Z,52.17
2023-06-03T16:07:36.422Z,51.09
2023-06-03T16:10:06.306Z,49.63
2023-06-03T16:12:35.091Z,53.89
2023-06-03T16:15:01.991Z,49.52
2023-06-03T16:17:28.825Z,54.89
2023-06-03T16:19:55.626Z,52.78
2023-06-03T16:22:29.841Z,55.22
2023-06-03T16:24:57.063Z,51.64
2023-06-03T16:27:23.755Z,53.52
2023-06-03T16:29:50.450Z,52.50
2023-06-03T16:32:17.292Z,50.56
2023-06-03T16:34:47.056Z,53.14
2023-06-03T16:37:15.320Z,50.51
2023-06-03T16:39:41.983Z,50.55
2023-06-03T16:42:08.817Z,51.34
2023-06-03T16:44:35.430Z,49.24
2023-06-03T16:47:02.117Z,50.50
2023-06-03T16:49:28.677Z,49.85
2023-06-03T16:51:55.375Z,48.59
2023-06-03T16:54:22.132Z,50.19
2023-06-03T16:56:48.805Z,51.10
2023-06-03T16:59:20.330Z,51.11
2023-06-03T17:01:47.179Z,56.07
2023-06-03T17:04:16.173Z,54.76
2023-06-03T17:06:50.984Z,51.25
2023-06-03T17:09:17.703Z,52.83
2023-06-03T17:11:46.734Z,50.33
2023-06-03T17:14:14.465Z,49.52
2023-06-03T17:16:43.509Z,52.73
2023-06-03T17:19:10.996Z,50.91
2023-06-03T17:21:37.825Z,51.89
2023-06-03T17:24:04.475Z,50.85
2023-06-03T17:26:31.296Z,54.03
2023-06-03T17:28:59.473Z,53.69
2023-06-03T17:31:26.220Z,59.75
2023-06-03T17:33:52.982Z,57.35
2023-06-03T17:36:19.691Z,58.65
2023-06-03T17:38:46.411Z,57.44
2023-06-03T17:41:13.062Z,60.64
2023-06-03T17:43:44.166Z,55.80
2023-06-03T17:46:11.442Z,51.67
2023-06-03T17:48:38.343Z,50.72
2023-06-03T17:51:05.433Z,48.71
2023-06-03T17:53:32.331Z,48.38
2023-06-03T17:56:04.823Z,48.85
2023-06-03T17:58:31.754Z,49.23
2023-06-03T18:00:58.408Z,46.26
2023-06-03T18:03:33.564Z,43.80
2023-06-03T18:06:00.180Z,48.80
2023-06-03T18:08:27.429Z,51.25
2023-06-03T18:10:54.083Z,57.22
2023-06-03T18:13:27.138Z,59.79
2023-06-03T18:16:01.475Z,58.12
2023-06-03T18:18:28.352Z,63.64
2023-06-03T18:20:57.278Z,65.67
2023-06-03T18:23:27.220Z,72.41
2023-06-03T18:25:55.319Z,73.15
2023-06-03T18:28:28.489Z,79.46
2023-06-03T18:30:55.196Z,84.68
2023-06-03T18:33:27.877Z,86.43
2023-06-03T18:35:54.627Z,85.71
2023-06-03T18:38:28.693Z,87.42
2023-06-03T18:40:56.760Z,91.37
2023-06-03T18:43:30.813Z,97.50
2023-06-03T18:45:57.490Z,96.79
2023-06-03T18:48:24.159Z,93.08
2023-06-03T18:50:50.830Z,96.61
2023-06-03T18:53:17.768Z,100.00
2023-06-03T18:55:44.375Z,100.00
2023-06-03T18:58:16.158Z,100.00
2023-06-03T19:00:42.810Z,100.00
2023-06-03T19:03:25.877Z,100.00
2023-06-03T19:05:54.704Z,100.00
2023-06-03T19:08:22.842Z,99.66
2023-06-03T19:10:57.480Z,95.56
2023-06-03T19:13:24.313Z,95.79
2023-06-03T19:16:00.147Z,99.35
2023-06-03T19:18:28.965Z,97.47
2023-06-03T19:20:55.725Z,98.10
2023-06-03T19:23:22.409Z,98.28
2023-06-03T19:25:49.194Z,100.00
2023-06-03T19:28:16.087Z,100.00
2023-06-03T19:30:42.729Z,100.00
2023-06-03T19:33:09.777Z,100.00
2023-06-03T19:35:36.477Z,100.00
2023-06-03T19:38:03.170Z,100.00
2023-06-03T19:40:32.329Z,100.00
2023-06-03T19:42:59.065Z,100.00
2023-06-03T19:45:26.115Z,100.00
2023-06-03T19:47:59.067Z,100.00
2023-06-03T19:50:29.704Z,100.00
2023-06-03T19:52:56.768Z,100.00
2023-06-03T19:55:23.617Z,100.00
2023-06-03T19:57:50.627Z,100.00
2023-06-03T20:00:18.269Z,100.00
2023-06-03T20:02:45.169Z,100.00
2023-06-03T20:05:15.705Z,100.00
2023-06-03T20:07:42.897Z,100.00
2023-06-03T20:10:10.110Z,100.00
2023-06-03T20:12:44.258Z,100.00
2023-06-03T20:15:11.543Z,100.00
2023-06-03T20:17:39.691Z,100.00
2023-06-03T20:20:12.859Z,100.00
2023-06-03T20:22:39.498Z,100.00
2023-06-03T20:25:06.788Z,100.00
2023-06-03T20:27:33.563Z,100.00
2023-06-03T20:30:00.433Z,100.00
2023-06-03T20:32:27.197Z,100.00
2023-06-03T20:34:56.737Z,100.00
2023-06-03T20:37:23.622Z,100.00
2023-06-03T20:39:50.373Z,100.00
2023-06-03T20:42:17.480Z,100.00
2023-06-03T20:44:44.343Z,100.00
2023-06-03T20:47:15.200Z,100.00
2023-06-03T20:49:42.253Z,100.00
2023-06-03T20:52:11.750Z,100.00
2023-06-03T20:54:38.373Z,100.00
2023-06-03T20:57:05.578Z,100.00
2023-06-03T20:59:33.941Z,100.00
2023-06-03T21:02:00.920Z,100.00
2023-06-03T21:04:27.620Z,100.00
2023-06-03T21:06:54.262Z,100.00
2023-06-03T21:09:20.966Z,100.00
2023-06-03T21:11:56.458Z,100.00
2023-06-03T21:14:23.169Z,100.00
2023-06-03T21:16:49.808Z,100.00
2023-06-03T21:19:16.543Z,100.00
2023-06-03T21:21:44.367Z,100.00
2023-06-03T21:24:11.951Z,100.00
2023-06-03T21:26:39.056Z,100.00
2023-06-03T21:29:06.243Z,100.00
2023-06-03T21:31:33.772Z,100.00
2023-06-03T21:34:00.467Z,100.00
2023-06-03T21:36:27.186Z,100.00
2023-06-03T21:38:53.833Z,100.00
2023-06-03T21:41:21.116Z,100.00
2023-06-03T21:43:48.885Z,100.00
2023-06-03T21:46:22.272Z,100.00
2023-06-03T21:48:49.044Z,100.00
2023-06-03T21:51:15.683Z,100.00
2023-06-03T21:53:42.311Z,100.00
2023-06-03T21:56:08.962Z,100.00
2023-06-03T21:58:40.537Z,100.00
2023-06-03T22:01:07.872Z,100.00
2023-06-03T22:03:34.910Z,100.00
2023-06-03T22:06:01.585Z,100.00
2023-06-03T22:08:28.245Z,100.00
2023-06-03T22:10:59.623Z,100.00
2023-06-03T22:13:28.549Z,100.00
2023-06-03T22:15:57.520Z,100.00
2023-06-03T22:18:26.148Z,100.00
2023-06-03T22:20:58.705Z,100.00
2023-06-03T22:23:27.920Z,100.00
2023-06-03T22:25:57.295Z,100.00
2023-06-03T22:28:26.602Z,100.00
2023-06-03T22:30:53.394Z,100.00
2023-06-03T22:33:20.645Z,100.00
2023-06-03T22:35:47.898Z,100.00
2023-06-03T22:38:14.596Z,100.00
2023-06-03T22:40:53.429Z,100.00
2023-06-03T22:43:21.385Z,100.00
2023-06-03T22:45:48.834Z,100.00
2023-06-03T22:48:15.682Z,100.00
2023-06-03T22:50:42.329Z,100.00
2023-06-03T22:53:08.987Z,100.00
2023-06-03T22:55:35.666Z,100.00
2023-06-03T22:58:02.335Z,100.00
2023-06-03T23:00:29.050Z,100.00
2023-06-03T23:02:56.038Z,100.00
2023-06-03T23:05:23.220Z,100.00
2023-06-03T23:07:50.170Z,100.00
2023-06-03T23:10:19.466Z,100.00
2023-06-03T23:12:46.232Z,100.00
2023-06-03T23:15:12.986Z,100.00
2023-06-03T23:17:40.424Z,100.00
2023-06-03T23:20:28.105Z,100.00
2023-06-03T23:22:54.980Z,100.00
2023-06-03T23:25:21.817Z,100.00
2023-06-03T23:27:48.803Z,100.00
2023-06-03T23:30:15.944Z,100.00
2023-06-03T23:32:43.721Z,100.00
2023-06-03T23:35:11.374Z,100.00
2023-06-03T23:37:41.330Z,100.00
2023-06-03T23:40:09.299Z,100.00
2023-06-03T23:42:38.695Z,100.00
2023-06-03T23:45:07.989Z,100.00
2023-06-03T23:47:36.151Z,100.00
2023-06-03T23:50:02.915Z,100.00
2023-06-03T23:52:32.095Z,100.00
2023-06-03T23:54:59.745Z,100.00
2023-06-03T23:57:27.456Z,100.00
2023-06-03T23:59:54.325Z,100.00
